Weather History For Prescott AZ
This page updates 5 minutes after midnight. GMT -7
Station: KPRC0 Rows: 26
| Year | Date | Temp (°F) | Tmin (°F) | Tmax (°F) | RH% | Prcp | Snow | Wind | Gust | Pres | Sun | Cloud |
|---|---|---|---|---|---|---|---|---|---|---|---|---|
| 2000 | 2000-04-19 | 49.5 | 34.0 | 64.0 | 46 | — | — | 8.4 | — | 30.01 | — | 1 |
| 2001 | 2001-04-19 | 64.0 | 59.0 | 71.1 | 19 | — | — | 25.4 | — | 29.77 | — | 3 |
| 2002 | 2002-04-19 | 51.6 | 42.8 | 62.6 | 23 | — | — | 18.8 | — | 29.75 | — | 0 |
| 2003 | 2003-04-19 | 46.8 | 35.6 | 57.2 | 53 | — | — | 6.1 | — | 29.93 | — | 3 |
| 2004 | 2004-04-19 | 49.8 | 37.4 | 62.6 | 34 | — | — | 13.8 | — | 30.00 | — | 0 |
| 2005 | 2005-04-19 | 52.9 | 43.0 | 60.1 | 37 | 0.0 | — | 22.5 | — | 29.69 | — | 1 |
| 2006 | 2006-04-19 | 53.1 | 33.8 | 71.1 | 24 | 0.0 | — | 8.7 | — | 29.85 | — | 1 |
| 2007 | 2007-04-19 | 46.4 | 27.0 | 64.0 | 17 | 0.0 | — | 9.6 | — | 29.80 | — | 0 |
| 2008 | 2008-04-19 | 56.7 | 37.9 | 71.1 | 18 | 0.0 | — | 20.3 | — | 29.74 | — | 0 |
| 2009 | 2009-04-19 | 59.0 | 39.0 | 75.9 | 31 | 0.0 | — | 7.1 | — | 30.10 | — | 0 |
| 2010 | 2010-04-19 | 61.2 | 52.0 | 71.1 | 26 | 0.0 | — | 14.3 | — | 29.84 | — | 1 |
| 2011 | 2011-04-19 | 60.1 | 48.9 | 71.1 | 38 | 0.0 | — | 9.3 | — | 29.77 | — | 0 |
| 2012 | 2012-04-19 | 64.4 | 46.0 | 78.1 | 25 | 0.0 | — | 11.2 | — | 29.86 | — | 0 |
| 2013 | 2013-04-19 | 50.0 | 28.0 | 68.0 | 20 | 0.0 | — | 8.7 | — | 30.08 | — | 0 |
| 2014 | 2014-04-19 | 55.4 | 39.9 | 68.0 | 53 | 0.0 | — | 13.2 | — | 29.92 | — | — |
| 2015 | 2015-04-19 | 59.0 | 41.0 | 72.0 | 22 | 0.0 | — | 7.7 | — | 29.85 | — | — |
| 2016 | 2016-04-19 | 56.8 | 37.9 | 73.0 | 27 | 0.0 | — | 11.6 | — | 29.98 | — | 0 |
| 2017 | 2017-04-19 | 61.3 | 46.9 | 73.0 | 33 | 0.0 | — | 10.6 | — | 29.94 | — | 0 |
| 2018 | 2018-04-19 | 52.2 | — | — | 20 | — | — | 25.3 | — | 0.00 | — | 0 |
| 2019 | 2019-04-19 | 63.1 | 42.1 | 82.0 | 29 | 0.0 | — | 10.8 | — | 29.95 | — | 0 |
| 2020 | 2020-04-19 | 52.5 | 39.9 | 64.0 | 50 | 0.0 | — | 11.1 | — | 29.91 | — | — |
| 2021 | 2021-04-19 | 53.6 | 34.0 | 70.0 | 28 | 0.0 | — | 12.0 | — | 29.96 | — | 0 |
| 2022 | 2022-04-19 | 66.4 | 55.0 | 78.1 | 13 | 0.0 | — | 23.9 | — | 29.76 | — | 0 |
| 2023 | 2023-04-19 | 54.0 | 43.0 | 62.1 | 21 | 0.0 | — | 18.3 | — | 29.80 | — | 0 |
| 2024 | 2024-04-19 | 60.8 | 45.0 | 75.0 | 25 | 0.0 | — | 12.6 | — | 29.82 | — | 0 |
| 2025 | 2025-04-19 | 44.2 | 30.9 | 57.9 | 56 | 0.0 | — | 14.4 | — | 30.00 | — | 2 |